Аэропорт
Магадан (UHMM)

 UHMM / GDX
ЗЦ Хабаровск
Магадан (UHMM)
Магадан (UHMM)
 59.91100, 150.72000  / 574 ft

 UHMM 161030Z 08001MPS 9999 NSC M35/M38 Q1018 R10/82//45 NOSIG RMK QFE749
 UHMM 151955Z 1521/1703 09003MPS 9999 SCT040 BKN070 TEMPO 1521/1601 3100 BR SCT011 BECMG 1522/1523 02003G08MPS TEMPO 1523/1610 10003G08MPS
UHMM_AIP_0217
показать схемы
Название сценария Тип сценария Flight Simulator 9 Flight Simulator X Prepar3D v2 Prepar3D v3 Prepar3D v4 xPlane
"Welcome to Kolyma" UHMM for P3Dv4 by Shestenko Sergey Vladimirovich платный
uhmm-scenery-fs9-0811 бесплатный
UHMM_FSX_1.01 Andrew Bolowin бесплатный


2018 © VATRUS division